Time;durP1;ratioP1;P1;durP2;ratioP2;P2;SDS_P1;SDS_P2;PMS_P1;PMS_P2;Temp;Humidity;BMP_temperature;BMP_pressure;BME280_temperature;BME280_humidity;BME280_pressure;Samples;Min_cycle;Max_cycle;Signal;HPM_P1;HPM_P2
2024/01/30 00:01:25;;;;;;;0.90;0.90;;;4.60;99.90;;;;;;5157286;27;20490;-70
2024/01/30 00:03:52;;;;;;;1.55;1.42;;;4.50;99.90;;;;;;5153015;27;20078;-70
2024/01/30 00:06:23;;;;;;;0.90;0.90;;;4.50;99.90;;;;;;5158002;27;20086;-70
2024/01/30 00:08:49;;;;;;;0.90;0.90;;;4.50;99.90;;;;;;5139058;27;20057;-70
2024/01/30 00:11:16;;;;;;;0.90;0.90;;;4.50;99.90;;;;;;5118929;27;20436;-70
2024/01/30 00:13:41;;;;;;;1.30;1.20;;;4.60;99.90;;;;;;5151497;27;20081;-70
2024/01/30 00:16:08;;;;;;;0.85;0.85;;;4.60;99.90;;;;;;5157812;27;20089;-70
2024/01/30 00:18:34;;;;;;;2.10;1.30;;;4.60;99.90;;;;;;5157787;27;20447;-70
2024/01/30 00:20:59;;;;;;;1.50;1.40;;;4.60;99.90;;;;;;5150556;27;20035;-70
2024/01/30 00:23:25;;;;;;;1.00;1.00;;;4.60;99.90;;;;;;5153907;27;20092;-70
2024/01/30 00:25:50;;;;;;;1.10;1.00;;;4.60;99.90;;;;;;5118580;27;20542;-70
2024/01/30 00:28:16;;;;;;;0.90;0.90;;;4.60;99.90;;;;;;5139107;27;20382;-70
2024/01/30 00:30:42;;;;;;;0.80;0.80;;;4.50;99.90;;;;;;5136774;27;20085;-70
2024/01/30 00:33:08;;;;;;;0.90;0.90;;;4.60;99.90;;;;;;5155389;27;20076;-70
2024/01/30 00:35:34;;;;;;;1.00;1.00;;;4.60;99.90;;;;;;5157243;27;20074;-70
2024/01/30 00:37:59;;;;;;;1.60;1.23;;;4.60;99.90;;;;;;5138957;27;20042;-70
2024/01/30 00:40:25;;;;;;;1.00;1.00;;;4.60;99.90;;;;;;5157293;27;20501;-70
2024/01/30 00:42:53;;;;;;;0.95;0.95;;;4.60;99.90;;;;;;5156717;27;20047;-70
2024/01/30 00:45:19;;;;;;;0.90;0.90;;;4.60;99.90;;;;;;5156348;27;20410;-70
2024/01/30 00:47:44;;;;;;;0.90;0.90;;;4.60;99.90;;;;;;5138809;27;20047;-70
2024/01/30 00:50:10;;;;;;;2.35;1.02;;;4.50;99.90;;;;;;5148160;27;20055;-70
2024/01/30 00:52:36;;;;;;;1.20;1.10;;;4.50;99.90;;;;;;5136312;27;20058;-70
2024/01/30 00:55:02;;;;;;;0.90;0.90;;;4.50;99.90;;;;;;5136255;27;20043;-70
2024/01/30 00:57:28;;;;;;;1.10;1.00;;;4.50;99.90;;;;;;5136174;27;20486;-70
2024/01/30 00:59:54;;;;;;;0.80;0.80;;;4.50;99.90;;;;;;5135954;27;20372;-70
2024/01/30 01:02:19;;;;;;;0.82;0.82;;;4.50;99.90;;;;;;5135775;27;20054;-70
2024/01/30 01:04:45;;;;;;;1.10;1.00;;;4.50;99.90;;;;;;5135956;27;20150;-70
2024/01/30 01:07:11;;;;;;;0.80;0.80;;;5.40;99.90;;;;;;5135994;27;20039;-70
2024/01/30 01:09:37;;;;;;;0.90;0.90;;;4.50;99.90;;;;;;5135991;27;20043;-70
2024/01/30 01:12:03;;;;;;;0.98;0.98;;;4.50;99.90;;;;;;5135940;27;20047;-70
2024/01/30 01:14:29;;;;;;;0.90;0.90;;;4.50;99.90;;;;;;5135861;27;20087;-69
2024/01/30 01:16:55;;;;;;;1.00;1.00;;;4.50;99.90;;;;;;5135935;27;20051;-70
2024/01/30 01:19:21;;;;;;;0.90;0.90;;;4.40;99.90;;;;;;5135671;27;20050;-70
2024/01/30 01:21:46;;;;;;;0.90;0.90;;;4.40;99.90;;;;;;5135803;27;20039;-69
2024/01/30 01:24:12;;;;;;;1.10;1.00;;;4.40;99.90;;;;;;5117344;27;20114;-70
2024/01/30 01:26:38;;;;;;;1.00;1.00;;;4.40;99.90;;;;;;5135604;27;20131;-70
2024/01/30 01:29:09;;;;;;;0.90;0.90;;;4.30;99.90;;;;;;5135559;27;20501;-69
2024/01/30 01:31:44;;;;;;;1.20;1.10;;;4.30;99.90;;;;;;5135681;27;20047;-70
2024/01/30 01:34:10;;;;;;;1.33;1.23;;;4.30;99.90;;;;;;5135462;27;20035;-70
2024/01/30 01:36:36;;;;;;;1.10;1.00;;;4.30;99.90;;;;;;5136957;27;20035;-70
2024/01/30 01:39:02;;;;;;;1.45;1.35;;;4.30;99.90;;;;;;5154108;27;20419;-70
2024/01/30 01:41:31;;;;;;;1.73;1.63;;;4.30;99.90;;;;;;5147862;27;20034;-70
2024/01/30 01:43:58;;;;;;;0.80;0.80;;;4.30;99.90;;;;;;5147727;27;20049;-70
2024/01/30 01:46:27;;;;;;;1.50;1.40;;;4.30;99.90;;;;;;5155914;27;20055;-70
2024/01/30 01:48:53;;;;;;;1.00;1.00;;;4.30;99.90;;;;;;5155788;27;20125;-70
2024/01/30 01:51:19;;;;;;;1.45;1.17;;;4.30;99.90;;;;;;5155841;27;20065;-70
2024/01/30 01:53:45;;;;;;;0.90;0.90;;;4.40;99.90;;;;;;5156325;27;20125;-70
2024/01/30 01:56:11;;;;;;;0.90;0.90;;;4.40;99.90;;;;;;5122938;27;20130;-70
2024/01/30 01:58:37;;;;;;;0.90;0.90;;;4.40;99.90;;;;;;5135077;27;20451;-70
2024/01/30 02:01:04;;;;;;;1.00;1.00;;;4.40;99.90;;;;;;5135029;27;20100;-70
2024/01/30 02:03:30;;;;;;;;;;;5.40;99.90;;;;;;5144245;27;20367;-70
2024/01/30 02:05:56;;;;;;;1.83;1.73;;;4.50;99.90;;;;;;5143558;27;19919;-70
2024/01/30 02:08:23;;;;;;;1.10;1.00;;;4.50;99.90;;;;;;5136170;27;20047;-70
2024/01/30 02:10:49;;;;;;;0.80;0.80;;;4.50;99.90;;;;;;5134988;27;20035;-70
2024/01/30 02:13:15;;;;;;;1.90;1.80;;;4.50;99.90;;;;;;5134824;27;20107;-70
2024/01/30 02:15:40;;;;;;;1.30;1.20;;;4.60;99.90;;;;;;5148101;27;20367;-70
2024/01/30 02:18:06;;;;;;;1.20;1.10;;;4.60;99.90;;;;;;5155569;27;20091;-70
2024/01/30 02:20:34;;;;;;;0.90;0.90;;;4.60;99.90;;;;;;5155499;27;20101;-70
2024/01/30 02:23:01;;;;;;;1.00;1.00;;;4.70;99.90;;;;;;5153902;27;20058;-70
2024/01/30 02:25:38;;;;;;;0.90;0.90;;;5.00;99.90;;;;;;5142624;27;20062;-70
2024/01/30 02:28:04;;;;;;;1.30;1.20;;;4.80;99.90;;;;;;5134412;27;20047;-70
2024/01/30 02:30:30;;;;;;;1.17;1.08;;;4.90;99.90;;;;;;5150067;27;20125;-70
2024/01/30 02:32:55;;;;;;;0.90;0.90;;;4.90;99.90;;;;;;5153459;27;20461;-70
2024/01/30 02:35:21;;;;;;;1.83;1.73;;;5.00;99.90;;;;;;5134583;28;20045;-70
2024/01/30 02:37:46;;;;;;;1.33;1.23;;;5.00;99.90;;;;;;5134619;28;20047;-70
2024/01/30 02:40:12;;;;;;;0.82;0.82;;;5.10;99.90;;;;;;5134233;28;20126;-70
2024/01/30 02:42:38;;;;;;;0.80;0.80;;;5.20;99.90;;;;;;5134909;28;20047;-69
2024/01/30 02:45:04;;;;;;;0.90;0.90;;;5.20;99.90;;;;;;5134219;28;20475;-70
2024/01/30 02:47:30;;;;;;;1.10;1.10;;;5.30;99.90;;;;;;5134371;28;20043;-70
2024/01/30 02:49:55;;;;;;;0.80;0.80;;;5.30;99.90;;;;;;5134859;28;20043;-70
2024/01/30 02:52:21;;;;;;;0.90;0.90;;;5.30;99.90;;;;;;5115856;28;20505;-70
2024/01/30 02:54:47;;;;;;;2.10;1.70;;;5.30;99.90;;;;;;5134988;28;20054;-70
2024/01/30 02:57:12;;;;;;;1.48;1.38;;;5.30;99.90;;;;;;5134155;28;20088;-70
2024/01/30 02:59:38;;;;;;;1.00;1.00;;;5.30;99.90;;;;;;5134250;28;20130;-70
2024/01/30 03:02:04;;;;;;;1.00;1.00;;;5.30;99.90;;;;;;5133994;28;20548;-70
2024/01/30 03:04:30;;;;;;;0.85;0.85;;;5.30;99.90;;;;;;5099389;28;20039;-70
2024/01/30 03:06:55;;;;;;;3.03;2.15;;;5.40;99.90;;;;;;5135276;27;20062;-70
2024/01/30 03:09:21;;;;;;;0.90;0.90;;;5.40;99.90;;;;;;5138112;27;20047;-70
2024/01/30 03:11:46;;;;;;;0.80;0.80;;;5.60;99.90;;;;;;5137996;27;20104;-70
2024/01/30 03:14:12;;;;;;;0.85;0.85;;;5.30;99.90;;;;;;5138842;27;20043;-70
2024/01/30 03:16:38;;;;;;;0.80;0.80;;;5.40;99.90;;;;;;5119903;27;20471;-70
2024/01/30 03:19:05;;;;;;;0.85;0.85;;;5.30;99.90;;;;;;5138118;27;20051;-70
2024/01/30 03:21:30;;;;;;;1.10;1.00;;;5.40;99.90;;;;;;5120200;27;20043;-70
2024/01/30 03:23:56;;;;;;;0.90;0.90;;;6.40;99.90;;;;;;5138023;27;20111;-70
2024/01/30 03:26:22;;;;;;;0.90;0.90;;;5.40;99.90;;;;;;5138052;27;20051;-70
2024/01/30 03:28:47;;;;;;;1.00;1.00;;;5.30;99.90;;;;;;5137953;27;20041;-70
2024/01/30 03:31:15;;;;;;;0.90;0.90;;;6.10;99.90;;;;;;5137845;27;20126;-70
2024/01/30 03:33:41;;;;;;;0.80;0.80;;;5.30;99.90;;;;;;5119480;27;20077;-70
2024/01/30 03:36:08;;;;;;;0.80;0.80;;;5.30;99.90;;;;;;5137847;27;20047;-70
2024/01/30 03:38:34;;;;;;;0.98;0.98;;;5.30;99.90;;;;;;5138075;27;20418;-70
2024/01/30 03:40:59;;;;;;;1.10;1.00;;;5.20;99.90;;;;;;5137708;27;20039;-70
2024/01/30 03:43:25;;;;;;;1.83;1.73;;;5.20;99.90;;;;;;5119124;27;20371;-70
2024/01/30 03:45:51;;;;;;;1.13;1.02;;;5.10;99.90;;;;;;5137622;27;20051;-70
2024/01/30 03:48:17;;;;;;;0.90;0.90;;;5.10;99.90;;;;;;5137998;27;20050;-70
2024/01/30 03:50:42;;;;;;;0.90;0.90;;;5.10;99.90;;;;;;5137508;27;20051;-70
2024/01/30 03:53:08;;;;;;;0.90;0.90;;;5.10;99.90;;;;;;5137720;27;20138;-70
2024/01/30 03:55:33;;;;;;;1.38;1.27;;;5.10;99.90;;;;;;5137366;27;20061;-70
2024/01/30 03:57:59;;;;;;;0.93;0.93;;;5.10;99.90;;;;;;5137437;27;20061;-70
2024/01/30 04:00:24;;;;;;;1.52;1.42;;;5.10;99.90;;;;;;5137288;27;20452;-70
2024/01/30 04:02:51;;;;;;;0.90;0.90;;;5.10;99.90;;;;;;5137100;27;20096;-70
2024/01/30 04:05:16;;;;;;;0.90;0.90;;;5.10;99.90;;;;;;5145866;27;20043;-70
2024/01/30 04:07:42;;;;;;;1.35;1.20;;;5.10;99.90;;;;;;5146206;27;20496;-70
2024/01/30 04:10:09;;;;;;;3.08;2.13;;;5.10;99.90;;;;;;5139582;27;20051;-70
2024/01/30 04:12:35;;;;;;;4.10;2.75;;;5.20;99.90;;;;;;5118931;27;20494;-70
2024/01/30 04:15:01;;;;;;;0.90;0.90;;;5.20;99.90;;;;;;5147075;27;20043;-70
2024/01/30 04:17:28;;;;;;;0.93;0.93;;;5.30;99.90;;;;;;5157606;27;20098;-70
2024/01/30 04:19:54;;;;;;;0.80;0.80;;;5.30;99.90;;;;;;5156669;27;20050;-70
2024/01/30 04:22:20;;;;;;;1.00;1.00;;;5.30;99.90;;;;;;5154010;27;20043;-70
2024/01/30 04:24:46;;;;;;;1.38;1.20;;;5.30;99.90;;;;;;5137985;27;20363;-70
2024/01/30 04:27:12;;;;;;;1.00;1.00;;;5.40;99.90;;;;;;5136572;27;20168;-70
2024/01/30 04:29:37;;;;;;;0.90;0.90;;;5.40;99.90;;;;;;5150454;27;20506;-70
2024/01/30 04:32:03;;;;;;;2.45;2.05;;;6.00;99.90;;;;;;5141182;27;20049;-70
2024/01/30 04:34:29;;;;;;;0.80;0.80;;;5.40;99.90;;;;;;5137065;27;20047;-70
2024/01/30 04:36:55;;;;;;;0.80;0.80;;;5.50;99.90;;;;;;5133510;27;20068;-70
2024/01/30 04:39:20;;;;;;;1.02;1.00;;;6.30;99.90;;;;;;5157171;27;20046;-70
2024/01/30 04:41:46;;;;;;;0.95;0.95;;;5.60;99.90;;;;;;5157088;27;20047;-70
2024/01/30 04:44:11;;;;;;;1.05;1.00;;;5.60;99.90;;;;;;5157259;27;20039;-70
2024/01/30 04:46:37;;;;;;;1.20;1.10;;;5.60;99.90;;;;;;5154390;27;20110;-70
2024/01/30 04:49:03;;;;;;;4.00;1.10;;;5.80;99.90;;;;;;5135865;27;20039;-69
2024/01/30 04:51:29;;;;;;;0.90;0.90;;;5.70;99.90;;;;;;5136033;27;20047;-69
2024/01/30 04:53:55;;;;;;;2.78;1.40;;;5.70;99.90;;;;;;5136375;27;20039;-69
2024/01/30 04:56:21;;;;;;;0.90;0.90;;;5.70;99.90;;;;;;5136345;27;20043;-69
2024/01/30 04:58:46;;;;;;;1.05;1.00;;;5.70;99.90;;;;;;5136159;27;20486;-69
2024/01/30 05:01:18;;;;;;;1.98;1.80;;;6.40;99.90;;;;;;5135931;27;20512;-69
2024/01/30 05:03:44;;;;;;;0.90;0.90;;;6.40;99.90;;;;;;5136405;27;20043;-69
2024/01/30 05:06:09;;;;;;;0.80;0.80;;;6.20;99.90;;;;;;5136064;27;20043;-69
2024/01/30 05:08:37;;;;;;;0.93;0.93;;;5.70;99.90;;;;;;5136191;27;20035;-69
2024/01/30 05:11:07;;;;;;;0.80;0.80;;;6.50;99.90;;;;;;5135949;27;20039;-69
2024/01/30 05:13:32;;;;;;;1.00;1.00;;;5.80;99.90;;;;;;5135356;27;20197;-69
2024/01/30 05:15:58;;;;;;;0.90;0.90;;;5.80;99.90;;;;;;5135636;27;20063;-69
2024/01/30 05:18:23;;;;;;;1.10;1.00;;;5.90;99.90;;;;;;5135840;27;20483;-69
2024/01/30 05:20:52;;;;;;;1.10;1.00;;;5.90;99.90;;;;;;5135756;27;20087;-69
2024/01/30 05:23:18;;;;;;;0.90;0.90;;;5.90;99.90;;;;;;5135652;27;20039;-69
2024/01/30 05:25:43;;;;;;;0.95;0.95;;;5.90;99.90;;;;;;5135523;27;20043;-69
2024/01/30 05:28:09;;;;;;;1.00;1.00;;;5.90;99.90;;;;;;5135245;27;20387;-69
2024/01/30 05:30:34;;;;;;;0.90;0.90;;;5.90;99.90;;;;;;5135127;27;20045;-70
2024/01/30 05:33:00;;;;;;;0.80;0.80;;;5.90;99.90;;;;;;5135504;27;20394;-69
2024/01/30 05:35:25;;;;;;;1.17;1.10;;;5.90;99.90;;;;;;5135352;27;20043;-70
2024/01/30 05:37:51;;;;;;;1.00;1.00;;;6.00;99.90;;;;;;5117411;27;20051;-69
2024/01/30 05:40:17;;;;;;;0.90;0.90;;;6.70;99.90;;;;;;5135356;27;20479;-69
2024/01/30 05:42:42;;;;;;;1.00;1.00;;;6.00;99.90;;;;;;5135078;27;20167;-69
2024/01/30 05:45:08;;;;;;;0.90;0.90;;;6.00;99.90;;;;;;5135175;27;20050;-70
2024/01/30 05:47:35;;;;;;;3.38;1.00;;;6.10;99.90;;;;;;5152031;27;20049;-69
2024/01/30 05:50:00;;;;;;;0.90;0.90;;;6.10;99.90;;;;;;5156008;27;20042;-70
2024/01/30 05:52:26;;;;;;;1.63;1.52;;;6.20;99.90;;;;;;5155880;27;20466;-69
2024/01/30 05:54:51;;;;;;;0.80;0.80;;;6.30;99.90;;;;;;5155925;27;20431;-69
2024/01/30 05:57:17;;;;;;;1.90;1.80;;;6.30;99.90;;;;;;5155784;27;20042;-70
2024/01/30 05:59:44;;;;;;;1.20;1.10;;;6.30;99.90;;;;;;5154699;27;20051;-69
2024/01/30 06:02:13;;;;;;;1.38;1.17;;;7.10;99.90;;;;;;5155663;27;20043;-75
2024/01/30 06:04:38;;;;;;;0.90;0.90;;;6.40;99.90;;;;;;5136851;27;20057;-69
2024/01/30 06:07:06;;;;;;;1.95;1.80;;;6.40;99.90;;;;;;5155632;27;20482;-71
2024/01/30 06:09:31;;;;;;;0.82;0.82;;;6.50;99.90;;;;;;5155671;27;20057;-68
2024/01/30 06:11:57;;;;;;;0.90;0.90;;;6.70;99.90;;;;;;5154600;27;20042;-69
2024/01/30 06:14:23;;;;;;;0.80;0.80;;;7.30;99.90;;;;;;5154123;27;20087;-71
2024/01/30 06:16:49;;;;;;;0.90;0.90;;;7.70;99.90;;;;;;5133751;27;20082;-68
2024/01/30 06:19:15;;;;;;;1.00;1.00;;;6.80;99.90;;;;;;5142321;27;20066;-68
2024/01/30 06:21:40;;;;;;;1.08;0.95;;;7.60;99.90;;;;;;5145156;27;20091;-69
2024/01/30 06:24:06;;;;;;;1.20;1.15;;;6.80;99.90;;;;;;5147201;27;20096;-68
2024/01/30 06:26:31;;;;;;;0.90;0.90;;;6.90;99.90;;;;;;5136185;27;20047;-70
2024/01/30 06:28:59;;;;;;;1.33;1.23;;;7.00;99.90;;;;;;5161676;27;20175;-76
2024/01/30 06:31:25;;;;;;;1.13;1.08;;;7.00;99.90;;;;;;5155674;27;20497;-69
2024/01/30 06:33:50;;;;;;;0.90;0.90;;;7.10;99.90;;;;;;5155615;27;20035;-70
2024/01/30 06:36:16;;;;;;;0.98;0.90;;;6.90;99.90;;;;;;5119800;27;20110;-70
2024/01/30 06:38:42;;;;;;;1.20;1.15;;;7.00;99.90;;;;;;5155046;27;20111;-69
2024/01/30 06:41:07;;;;;;;0.90;0.90;;;7.10;99.90;;;;;;5155277;27;20043;-72
2024/01/30 06:43:33;;;;;;;0.70;0.70;;;6.90;99.90;;;;;;5159189;27;20056;-70
2024/01/30 06:45:59;;;;;;;0.90;0.90;;;7.80;99.90;;;;;;5160117;27;20091;-70
2024/01/30 06:48:25;;;;;;;1.05;1.05;;;6.90;99.90;;;;;;5159524;27;20047;-75
2024/01/30 06:50:54;;;;;;;0.80;0.80;;;6.90;99.90;;;;;;5159586;27;20542;-69
2024/01/30 06:53:19;;;;;;;1.00;1.00;;;7.00;99.90;;;;;;5159209;27;20047;-69
2024/01/30 06:55:45;;;;;;;0.82;0.82;;;6.90;99.90;;;;;;5158928;27;20064;-69
2024/01/30 06:58:11;;;;;;;0.82;0.82;;;7.00;99.90;;;;;;5159266;27;20043;-71
2024/01/30 07:00:37;;;;;;;1.25;1.17;;;7.00;99.90;;;;;;5159316;27;20039;-74
2024/01/30 07:03:02;;;;;;;2.97;2.08;;;7.00;99.90;;;;;;5141149;27;20500;-81
2024/01/30 07:05:28;;;;;;;0.85;0.85;;;7.10;99.90;;;;;;5159245;27;20047;-71
2024/01/30 07:07:54;;;;;;;1.25;1.15;;;7.90;99.90;;;;;;5158979;27;20043;-75
2024/01/30 07:10:19;;;;;;;1.42;1.33;;;7.10;99.90;;;;;;5158744;27;20466;-70
2024/01/30 07:12:45;;;;;;;0.95;0.95;;;7.50;99.90;;;;;;5158839;27;20038;-71
2024/01/30 07:15:10;;;;;;;0.80;0.80;;;7.10;99.90;;;;;;5158937;27;20050;-71
2024/01/30 07:17:37;;;;;;;0.80;0.80;;;7.10;99.90;;;;;;5158356;27;20122;-71
2024/01/30 07:20:06;;;;;;;1.23;1.13;;;7.10;99.90;;;;;;5155075;27;20530;-72
2024/01/30 07:22:31;;;;;;;0.90;0.90;;;7.10;99.90;;;;;;5155868;27;20042;-70
2024/01/30 07:24:57;;;;;;;0.90;0.90;;;7.10;99.90;;;;;;5156473;27;20534;-70
2024/01/30 07:27:22;;;;;;;0.80;0.80;;;7.10;99.90;;;;;;5155674;27;20080;-70
2024/01/30 07:29:48;;;;;;;2.25;1.55;;;7.10;99.90;;;;;;5156322;27;20053;-71
2024/01/30 07:32:14;;;;;;;0.90;0.90;;;7.20;99.90;;;;;;5157518;27;20038;-71
2024/01/30 07:34:40;;;;;;;1.45;1.35;;;7.20;99.90;;;;;;5158566;27;20543;-70
2024/01/30 07:37:08;;;;;;;0.80;0.80;;;7.60;99.90;;;;;;5158473;27;20047;-70
2024/01/30 07:39:34;;;;;;;3.40;1.88;;;7.30;99.90;;;;;;5158518;27;20055;-71
2024/01/30 07:41:59;;;;;;;0.70;0.70;;;7.30;99.90;;;;;;5158516;27;20099;-70
2024/01/30 07:44:25;;;;;;;1.55;1.45;;;7.30;99.90;;;;;;5158432;27;20403;-71
2024/01/30 07:46:51;;;;;;;0.80;0.80;;;7.30;99.90;;;;;;5158877;27;20501;-70
2024/01/30 07:49:17;;;;;;;0.95;0.95;;;7.40;99.90;;;;;;5158677;27;20039;-70
2024/01/30 07:51:43;;;;;;;0.82;0.82;;;7.30;99.90;;;;;;5158453;27;20054;-70
2024/01/30 07:54:15;;;;;;;0.80;0.80;;;7.70;99.90;;;;;;5150937;27;20047;-70
2024/01/30 07:56:41;;;;;;;0.80;0.80;;;7.40;99.90;;;;;;5146913;27;20046;-70
2024/01/30 07:59:10;;;;;;;1.38;1.27;;;7.40;99.90;;;;;;5158163;27;20047;-70
2024/01/30 08:01:35;;;;;;;1.33;1.23;;;7.40;99.90;;;;;;5158112;27;20057;-71
2024/01/30 08:04:01;;;;;;;0.80;0.80;;;7.60;99.90;;;;;;5157897;27;20478;-70
2024/01/30 08:06:26;;;;;;;1.00;1.00;;;8.20;99.90;;;;;;5157846;27;20053;-70
2024/01/30 08:08:53;;;;;;;0.80;0.80;;;7.50;99.90;;;;;;5157925;27;20099;-71
2024/01/30 08:11:25;;;;;;;0.80;0.80;;;8.30;99.90;;;;;;5157711;27;20119;-70
2024/01/30 08:13:51;;;;;;;1.08;1.02;;;7.50;99.90;;;;;;5157919;27;20411;-70
2024/01/30 08:16:17;;;;;;;0.90;0.90;;;7.50;99.90;;;;;;5157843;27;20038;-71
2024/01/30 08:18:42;;;;;;;1.17;1.08;;;7.50;99.90;;;;;;5157908;27;20830;-70
2024/01/30 08:21:09;;;;;;;1.17;1.08;;;7.70;99.90;;;;;;5157704;27;20050;-70
2024/01/30 08:23:34;;;;;;;1.65;1.48;;;8.30;99.90;;;;;;5157736;27;20161;-71
2024/01/30 08:26:00;;;;;;;0.90;0.90;;;7.60;99.90;;;;;;5157587;27;20064;-71
2024/01/30 08:28:26;;;;;;;1.25;1.15;;;7.60;99.90;;;;;;5157548;27;20046;-71
2024/01/30 08:30:52;;;;;;;0.70;0.70;;;7.60;99.90;;;;;;5157546;27;20056;-70
2024/01/30 08:33:18;;;;;;;0.80;0.80;;;7.60;99.90;;;;;;5157508;27;20042;-69
2024/01/30 08:35:43;;;;;;;0.90;0.90;;;7.60;99.90;;;;;;5157745;27;20046;-71
2024/01/30 08:38:09;;;;;;;0.90;0.90;;;7.60;99.90;;;;;;5157300;27;20046;-70
2024/01/30 08:40:35;;;;;;;1.17;1.08;;;7.60;99.90;;;;;;5157323;27;20045;-71
2024/01/30 08:43:00;;;;;;;1.25;1.15;;;7.70;99.90;;;;;;5157254;27;20074;-70
2024/01/30 08:45:26;;;;;;;0.70;0.70;;;7.70;99.90;;;;;;5157877;27;20494;-71
2024/01/30 08:47:52;;;;;;;1.05;1.05;;;7.80;99.90;;;;;;5157342;27;20390;-70
2024/01/30 08:50:17;;;;;;;0.80;0.80;;;7.80;99.90;;;;;;5157405;27;20066;-70
2024/01/30 08:52:43;;;;;;;1.17;1.08;;;7.80;99.90;;;;;;5156926;27;20502;-70
2024/01/30 08:55:09;;;;;;;0.93;0.90;;;7.80;99.90;;;;;;5156793;27;20122;-70
2024/01/30 08:57:34;;;;;;;0.90;0.85;;;7.90;99.90;;;;;;5157532;27;20039;-70
2024/01/30 09:00:04;;;;;;;0.80;0.80;;;7.90;99.90;;;;;;5157046;27;20046;-70
2024/01/30 09:02:29;;;;;;;0.70;0.70;;;7.90;99.90;;;;;;5139266;27;20080;-70
2024/01/30 09:04:55;;;;;;;1.50;1.40;;;8.00;99.90;;;;;;5155722;27;20076;-70
2024/01/30 09:07:21;;;;;;;0.80;0.80;;;8.40;99.90;;;;;;5156849;27;20078;-71
2024/01/30 09:09:46;;;;;;;0.80;0.80;;;8.20;99.90;;;;;;5156734;27;20047;-71
2024/01/30 09:12:12;;;;;;;0.80;0.80;;;8.30;99.90;;;;;;5157196;27;20121;-70
2024/01/30 09:14:40;;;;;;;0.70;0.70;;;8.30;99.90;;;;;;5156234;27;20047;-73
2024/01/30 09:17:05;;;;;;;0.80;0.80;;;8.50;99.90;;;;;;5138174;27;20039;-70
2024/01/30 09:19:31;;;;;;;0.70;0.70;;;8.80;99.90;;;;;;5156832;27;20034;-70
2024/01/30 09:21:56;;;;;;;0.80;0.80;;;8.50;99.90;;;;;;5156769;27;20129;-70
2024/01/30 09:24:22;;;;;;;1.50;1.40;;;8.50;99.90;;;;;;5156178;27;20050;-69
2024/01/30 09:26:47;;;;;;;1.55;0.90;;;8.60;99.90;;;;;;5156389;27;20508;-71
2024/01/30 09:29:13;;;;;;;0.80;0.80;;;8.60;99.90;;;;;;5156332;27;20038;-70
2024/01/30 09:31:39;;;;;;;0.70;0.70;;;8.60;99.90;;;;;;5156369;27;20042;-69
2024/01/30 09:34:04;;;;;;;0.70;0.70;;;8.60;99.90;;;;;;5156283;27;20557;-74
2024/01/30 09:36:31;;;;;;;1.40;1.30;;;8.60;99.90;;;;;;5156179;27;20038;-78
2024/01/30 09:38:56;;;;;;;0.80;0.80;;;8.60;99.90;;;;;;5156251;27;20386;-69
2024/01/30 09:41:24;;;;;;;1.15;1.05;;;8.70;99.90;;;;;;5155771;27;20034;-71
2024/01/30 09:43:51;;;;;;;1.25;1.15;;;8.70;99.90;;;;;;5155916;27;20046;-69
2024/01/30 09:46:20;;;;;;;0.80;0.80;;;8.70;99.90;;;;;;5156047;27;20047;-69
2024/01/30 09:48:49;;;;;;;0.70;0.70;;;8.80;99.90;;;;;;5155895;27;20043;-69
2024/01/30 09:51:16;;;;;;;0.80;0.80;;;8.90;99.90;;;;;;5155552;27;20466;-68
2024/01/30 09:53:43;;;;;;;0.77;0.77;;;8.80;99.90;;;;;;5155390;27;20058;-67
2024/01/30 09:56:09;;;;;;;0.70;0.70;;;8.80;99.90;;;;;;5155933;27;20035;-67
2024/01/30 09:58:35;;;;;;;0.80;0.80;;;8.90;99.90;;;;;;5155783;27;20046;-68
2024/01/30 10:01:00;;;;;;;0.80;0.80;;;8.90;99.90;;;;;;5155904;27;20049;-69
2024/01/30 10:03:26;;;;;;;0.80;0.80;;;9.80;99.90;;;;;;5137300;27;20587;-69
2024/01/30 10:05:53;;;;;;;0.70;0.70;;;9.10;99.90;;;;;;5137250;27;20125;-68
2024/01/30 10:08:19;;;;;;;0.80;0.80;;;8.90;99.90;;;;;;5155617;27;20432;-71
2024/01/30 10:10:49;;;;;;;0.70;0.70;;;8.90;99.90;;;;;;5155592;27;20067;-72
2024/01/30 10:13:15;;;;;;;1.00;0.95;;;8.90;99.90;;;;;;5155829;27;20039;-72
2024/01/30 10:15:41;;;;;;;1.02;0.93;;;8.90;99.90;;;;;;5155414;27;20126;-73
2024/01/30 10:18:08;;;;;;;1.08;1.00;;;9.00;99.90;;;;;;5136921;27;20085;-73
2024/01/30 10:20:34;;;;;;;0.80;0.80;;;9.10;99.90;;;;;;5155471;27;20064;-67
2024/01/30 10:22:59;;;;;;;0.90;0.90;;;9.10;99.90;;;;;;5154840;27;20057;-69
2024/01/30 10:25:26;;;;;;;0.75;0.75;;;9.00;99.90;;;;;;5155457;27;20046;-70
2024/01/30 10:27:58;;;;;;;0.93;0.93;;;9.10;99.90;;;;;;5155640;27;20047;-70
2024/01/30 10:30:24;;;;;;;1.08;1.02;;;9.20;99.90;;;;;;5154145;27;20047;-67
2024/01/30 10:32:51;;;;;;;0.80;0.80;;;9.20;99.90;;;;;;5155430;27;20129;-71
2024/01/30 10:35:17;;;;;;;0.80;0.80;;;9.20;99.90;;;;;;5155365;27;20631;-70
2024/01/30 10:37:48;;;;;;;1.00;0.90;;;9.30;99.90;;;;;;5155306;27;20039;-69
2024/01/30 10:40:15;;;;;;;0.63;0.63;;;9.30;99.90;;;;;;5155034;27;20521;-66
2024/01/30 10:42:45;;;;;;;1.55;1.45;;;9.30;99.90;;;;;;5155621;27;20054;-67
2024/01/30 10:45:13;;;;;;;0.70;0.70;;;9.40;99.90;;;;;;5155164;27;20039;-69
2024/01/30 10:47:41;;;;;;;2.38;1.05;;;9.40;99.90;;;;;;5155061;27;20050;-70
2024/01/30 10:50:08;;;;;;;1.88;1.02;;;9.50;99.90;;;;;;5155146;27;20051;-69
2024/01/30 10:52:34;;;;;;;0.70;0.70;;;9.50;99.90;;;;;;5155370;27;20077;-66
2024/01/30 10:55:00;;;;;;;0.90;0.90;;;9.50;99.90;;;;;;5155066;27;20494;-69
2024/01/30 10:57:28;;;;;;;0.98;0.80;;;9.50;99.90;;;;;;5155129;27;20043;-69
2024/01/30 10:59:57;;;;;;;0.70;0.70;;;9.50;99.90;;;;;;5154970;27;20042;-69
2024/01/30 11:02:23;;;;;;;5.75;5.35;;;9.60;99.90;;;;;;5155287;27;20042;-69
2024/01/30 11:04:49;;;;;;;0.80;0.80;;;9.60;99.90;;;;;;5154705;27;20093;-69
2024/01/30 11:07:16;;;;;;;1.27;1.17;;;9.60;99.90;;;;;;5155185;27;20482;-70
2024/01/30 11:09:57;;;;;;;1.10;1.00;;;9.70;99.90;;;;;;5154849;27;20505;-70
2024/01/30 11:12:25;;;;;;;0.70;0.70;;;9.70;99.90;;;;;;5155301;27;20046;-66
2024/01/30 11:15:14;;;;;;;0.70;0.70;;;10.50;99.90;;;;;;5154785;27;20402;-69
2024/01/30 11:17:49;;;;;;;0.80;0.80;;;9.80;99.90;;;;;;5155034;27;20042;-67
2024/01/30 11:20:32;;;;;;;0.70;0.70;;;9.80;99.90;;;;;;5154948;27;20053;-67
2024/01/30 11:22:59;;;;;;;1.30;1.23;;;9.80;99.90;;;;;;5155150;27;20046;-69
2024/01/30 11:25:25;;;;;;;1.50;1.40;;;9.80;99.90;;;;;;5154367;27;20092;-69
2024/01/30 11:27:53;;;;;;;0.90;0.90;;;9.80;99.90;;;;;;5155225;27;20482;-72
2024/01/30 11:30:29;;;;;;;0.80;0.80;;;9.80;99.90;;;;;;5166574;27;20470;-70
2024/01/30 11:33:11;;;;;;;0.73;0.73;;;9.80;99.90;;;;;;5158958;27;20085;-70
2024/01/30 11:35:40;;;;;;;0.80;0.80;;;9.90;99.90;;;;;;5158562;27;20050;-69
2024/01/30 11:38:08;;;;;;;1.67;1.00;;;9.80;99.90;;;;;;5158270;27;20066;-70
2024/01/30 11:40:34;;;;;;;0.80;0.80;;;10.60;99.90;;;;;;5158294;27;20126;-67
2024/01/30 11:43:02;;;;;;;1.20;1.15;;;9.90;99.90;;;;;;5158429;27;20054;-71
2024/01/30 11:45:27;;;;;;;1.10;1.00;;;9.90;99.90;;;;;;5158397;27;20312;-68
2024/01/30 11:47:54;;;;;;;1.13;1.02;;;9.90;99.90;;;;;;5158216;27;20039;-70
2024/01/30 11:50:20;;;;;;;0.90;0.90;;;10.00;99.90;;;;;;5158297;27;20054;-72
2024/01/30 11:52:46;;;;;;;1.00;0.90;;;9.80;99.90;;;;;;5158118;27;20054;-71
2024/01/30 11:55:14;;;;;;;0.80;0.80;;;10.00;99.90;;;;;;5158014;27;20053;-70
2024/01/30 11:57:40;;;;;;;0.90;0.90;;;10.00;99.90;;;;;;5158010;27;20099;-68
2024/01/30 12:00:10;;;;;;;0.70;0.70;;;10.00;99.90;;;;;;5158158;27;20054;-69
2024/01/30 12:02:36;;;;;;;0.88;0.88;;;10.00;99.90;;;;;;5158109;27;20049;-70
2024/01/30 12:05:11;;;;;;;0.80;0.80;;;10.20;99.90;;;;;;5157878;27;20043;-70
2024/01/30 12:07:37;;;;;;;0.80;0.80;;;10.60;99.90;;;;;;5157805;27;20046;-69
2024/01/30 12:10:03;;;;;;;0.95;0.95;;;10.10;99.90;;;;;;5157932;27;20069;-71
2024/01/30 12:12:29;;;;;;;1.27;1.17;;;10.10;99.90;;;;;;5158316;27;20082;-70
2024/01/30 12:14:56;;;;;;;1.25;1.15;;;10.10;99.90;;;;;;5158424;27;20446;-69
2024/01/30 12:17:32;;;;;;;1.23;1.13;;;10.10;99.90;;;;;;5157822;27;20035;-74
2024/01/30 12:20:15;;;;;;;1.95;1.45;;;10.00;99.90;;;;;;5157806;27;20409;-69
2024/01/30 12:22:46;;;;;;;1.58;0.82;;;10.10;99.90;;;;;;5158215;27;20049;-69
2024/01/30 12:25:17;;;;;;;0.70;0.70;;;10.10;99.90;;;;;;5157454;27;20474;-71
2024/01/30 12:27:44;;;;;;;0.80;0.80;;;10.20;99.90;;;;;;5157293;27;20477;-70
2024/01/30 12:30:11;;;;;;;0.80;0.80;;;10.30;99.90;;;;;;5157354;27;20545;-70
2024/01/30 12:32:40;;;;;;;0.80;0.80;;;10.20;99.90;;;;;;5146268;27;20050;-71
2024/01/30 12:35:19;;;;;;;1.13;1.02;;;10.40;99.90;;;;;;5136902;27;20043;-71
2024/01/30 12:37:46;;;;;;;0.70;0.70;;;10.30;99.90;;;;;;5136616;27;20043;-71
2024/01/30 12:40:14;;;;;;;1.17;1.08;;;10.40;99.90;;;;;;5139631;27;20045;-70
2024/01/30 12:42:48;;;;;;;1.02;1.02;;;10.80;99.90;;;;;;5147174;27;20099;-71
2024/01/30 12:45:21;;;;;;;0.88;0.88;;;10.50;99.90;;;;;;5157223;27;20147;-75
2024/01/30 12:47:48;;;;;;;0.70;0.70;;;10.50;99.90;;;;;;5156248;27;20121;-70
2024/01/30 12:50:15;;;;;;;0.77;0.77;;;10.60;99.90;;;;;;5156183;27;20058;-71
2024/01/30 12:52:42;;;;;;;0.80;0.80;;;10.50;99.90;;;;;;5157159;27;20303;-69